Time;durP1;ratioP1;P1;durP2;ratioP2;P2;SDS_P1;SDS_P2;PMS_P1;PMS_P2;Temp;Humidity;BMP_temperature;BMP_pressure;BME280_temperature;BME280_humidity;BME280_pressure;Samples;Min_cycle;Max_cycle;Signal;HPM_P1;HPM_P2
2023/07/21 00:00:01;;;;;;;3.20;1.20;;;;;;;13.28;73.81;100260.85;105556;1257;83340;-64
2023/07/21 00:02:31;;;;;;;1.20;1.10;;;;;;;13.24;73.98;100258.42;105528;1255;73984;-64
2023/07/21 00:04:58;;;;;;;3.30;1.20;;;;;;;13.19;74.04;100262.20;105457;1257;69102;-64
2023/07/21 00:07:25;;;;;;;3.50;1.30;;;;;;;13.15;74.13;100266.77;105521;1256;69175;-64
2023/07/21 00:09:53;;;;;;;1.70;1.40;;;;;;;13.09;74.26;100266.37;105498;1257;74855;-64
2023/07/21 00:12:20;;;;;;;1.60;1.30;;;;;;;13.04;74.42;100267.64;105554;1257;82254;-64
2023/07/21 00:14:47;;;;;;;1.50;1.40;;;;;;;12.99;74.63;100267.23;105542;1257;73496;-64
2023/07/21 00:17:15;;;;;;;1.90;1.30;;;;;;;12.93;74.70;100267.65;105505;1256;69198;-64
2023/07/21 00:19:44;;;;;;;2.20;1.40;;;;;;;12.90;75.02;100265.52;105482;1254;69156;-64
2023/07/21 00:22:11;;;;;;;1.50;1.40;;;;;;;12.84;74.95;100262.50;105503;1254;74938;-64
2023/07/21 00:24:38;;;;;;;3.50;1.40;;;;;;;12.78;75.30;100260.69;105553;1256;83796;-64
2023/07/21 00:27:06;;;;;;;2.20;1.30;;;;;;;12.70;75.14;100254.04;105527;1257;73873;-64
2023/07/21 00:29:33;;;;;;;1.70;1.50;;;;;;;12.65;75.57;100259.36;105463;1260;69377;-64
2023/07/21 00:32:02;;;;;;;1.90;1.40;;;;;;;12.62;75.57;100256.20;105461;1253;69727;-64
2023/07/21 00:34:29;;;;;;;3.80;1.90;;;;;;;12.58;75.96;100263.40;105485;1252;74811;-64
2023/07/21 00:36:57;;;;;;;4.00;1.60;;;;;;;12.56;76.11;100265.25;105420;1257;83554;-64
2023/07/21 00:39:24;;;;;;;2.10;1.70;;;;;;;12.55;76.28;100271.41;105375;1258;73533;-64
2023/07/21 00:41:52;;;;;;;2.20;2.00;;;;;;;12.53;76.50;100272.23;105562;1255;69047;-64
2023/07/21 00:44:19;;;;;;;2.60;2.00;;;;;;;12.50;76.61;100273.40;105549;1257;69146;-64
2023/07/21 00:46:47;;;;;;;2.30;1.80;;;;;;;12.49;76.72;100271.00;105498;1257;74692;-64
2023/07/21 00:49:14;;;;;;;3.60;1.60;;;;;;;12.43;76.49;100271.30;105520;1257;83412;-64
2023/07/21 00:51:41;;;;;;;2.40;1.80;;;;;;;12.36;76.53;100271.29;105440;1255;73724;-64
2023/07/21 00:54:08;;;;;;;2.40;1.60;;;;;;;12.33;76.99;100268.44;105394;1260;69285;-64
2023/07/21 00:56:36;;;;;;;2.10;1.50;;;;;;;12.30;76.99;100267.50;105466;1257;69122;-64
2023/07/21 00:59:03;;;;;;;2.50;1.80;;;;;;;12.25;76.93;100263.88;105445;1257;75011;-64
2023/07/21 01:01:30;;;;;;;3.40;1.90;;;;;;;12.21;77.20;100261.05;105454;1257;83420;-63
2023/07/21 01:03:58;;;;;;;2.00;1.80;;;;;;;12.20;77.37;100258.14;105542;1256;73835;-64
2023/07/21 01:06:27;;;;;;;3.50;1.80;;;;;;;12.17;77.21;100260.55;105506;1256;69115;-64
2023/07/21 01:08:58;;;;;;;1.70;1.50;;;;;;;12.13;77.31;100263.20;105514;1257;69182;-64
2023/07/21 01:11:25;;;;;;;5.60;2.10;;;;;;;12.10;77.58;100260.89;105480;1254;74952;-64
2023/07/21 01:13:56;;;;;;;3.80;1.70;;;;;;;12.07;77.90;100258.05;105477;1259;83343;-64
2023/07/21 01:16:23;;;;;;;2.20;1.60;;;;;;;12.03;77.86;100256.84;105431;1257;72753;-64
2023/07/21 01:18:53;;;;;;;4.00;1.70;;;;;;;12.02;78.29;100254.75;105481;1257;69166;-64
2023/07/21 01:21:48;;;;;;;5.00;1.80;;;;;;;12.00;78.26;100257.48;105562;1256;69212;-64
2023/07/21 01:24:23;;;;;;;2.30;1.90;;;;;;;11.96;78.44;100256.45;105540;1254;75219;-64
2023/07/21 01:26:51;;;;;;;2.30;1.50;;;;;;;11.93;78.37;100253.27;105515;1256;83427;-64
2023/07/21 01:29:23;;;;;;;4.20;1.80;;;;;;;11.89;78.48;100255.90;105507;1254;73746;-64
2023/07/21 01:31:52;;;;;;;2.60;1.80;;;;;;;11.86;78.65;100257.08;105422;1259;69551;-64
2023/07/21 01:34:19;;;;;;;3.10;1.90;;;;;;;11.88;79.05;100254.36;105539;1255;69182;-64
2023/07/21 01:36:47;;;;;;;2.80;2.00;;;;;;;11.89;79.35;100255.18;105521;1259;73959;-64
2023/07/21 01:39:15;;;;;;;2.70;1.70;;;;;;;11.88;78.99;100253.32;105522;1258;83437;-64
2023/07/21 01:41:42;;;;;;;1.60;1.50;;;;;;;11.83;78.92;100253.11;105425;1257;73913;-64
2023/07/21 01:44:09;;;;;;;2.10;1.70;;;;;;;11.78;78.88;100253.70;105480;1253;69182;-64
2023/07/21 01:46:36;;;;;;;2.10;1.90;;;;;;;11.72;78.70;100255.88;105484;1257;69159;-64
2023/07/21 01:49:04;;;;;;;3.60;1.70;;;;;;;11.69;78.93;100255.14;105549;1257;75018;-64
2023/07/21 01:51:33;;;;;;;1.80;1.60;;;;;;;11.67;79.20;100254.38;105566;1258;82658;-64
2023/07/21 01:54:05;;;;;;;1.80;1.60;;;;;;;11.66;79.37;100257.21;105492;1255;73912;-64
2023/07/21 01:56:40;;;;;;;3.50;1.80;;;;;;;11.63;79.05;100255.09;105508;1256;69096;-64
2023/07/21 01:59:10;;;;;;;2.40;1.70;;;;;;;11.57;79.44;100258.13;105432;1257;69150;-64
2023/07/21 02:01:38;;;;;;;1.70;1.50;;;;;;;11.53;79.18;100257.27;105291;1260;73712;-63
2023/07/21 02:04:05;;;;;;;3.40;1.50;;;;;;;11.46;79.18;100256.14;105433;1261;82226;-64
2023/07/21 02:06:33;;;;;;;1.80;1.40;;;;;;;11.41;79.04;100253.95;105474;1255;73737;-64
2023/07/21 02:09:00;;;;;;;2.10;1.80;;;;;;;11.37;79.60;100250.59;105534;1263;70202;-64
2023/07/21 02:11:27;;;;;;;2.40;1.90;;;;;;;11.38;79.81;100248.98;105573;1256;69211;-64
2023/07/21 02:14:22;;;;;;;2.10;1.70;;;;;;;11.37;79.96;100250.92;105217;1256;74827;-64
2023/07/21 02:16:49;;;;;;;5.90;1.90;;;;;;;11.35;79.95;100246.30;105519;1254;83561;-64
2023/07/21 02:19:18;;;;;;;3.50;2.00;;;;;;;11.31;79.84;100248.91;105471;1257;73827;-64
2023/07/21 02:21:45;;;;;;;2.50;1.80;;;;;;;11.26;80.02;100249.83;105536;1260;70622;-64
2023/07/21 02:24:12;;;;;;;3.10;1.80;;;;;;;11.22;79.99;100252.96;105440;1260;69177;-64
2023/07/21 02:26:39;;;;;;;2.70;1.90;;;;;;;11.20;80.20;100252.19;105493;1259;74928;-64
2023/07/21 02:29:07;;;;;;;1.60;1.40;;;;;;;11.17;79.99;100255.11;105517;1256;83465;-64
2023/07/21 02:31:34;;;;;;;1.70;1.50;;;;;;;11.11;79.87;100256.59;105453;1257;73938;-64
2023/07/21 02:34:01;;;;;;;3.80;1.50;;;;;;;11.05;80.01;100258.40;105504;1256;69208;-64
2023/07/21 02:36:29;;;;;;;3.50;1.60;;;;;;;11.01;79.91;100257.70;105549;1257;69119;-64
2023/07/21 02:38:56;;;;;;;2.30;1.60;;;;;;;10.96;80.04;100259.48;105506;1257;74872;-64
2023/07/21 02:41:24;;;;;;;2.20;1.50;;;;;;;10.94;80.06;100263.04;105511;1256;82503;-64
2023/07/21 02:43:52;;;;;;;1.60;1.40;;;;;;;10.89;80.01;100263.07;105624;1255;72693;-64
2023/07/21 02:46:19;;;;;;;2.00;1.70;;;;;;;10.83;80.07;100261.05;105401;1260;69180;-64
2023/07/21 02:48:46;;;;;;;2.10;1.50;;;;;;;10.80;80.18;100262.94;105497;1255;69186;-64
2023/07/21 02:51:14;;;;;;;1.60;1.50;;;;;;;10.77;80.19;100262.52;105528;1254;74806;-64
2023/07/21 02:53:43;;;;;;;2.00;1.40;;;;;;;10.73;80.44;100258.84;105531;1256;83682;-64
2023/07/21 02:56:10;;;;;;;1.70;1.60;;;;;;;10.72;80.54;100263.40;105490;1257;73934;-64
2023/07/21 02:58:53;;;;;;;1.40;1.30;;;;;;;10.70;80.68;100262.25;105395;1260;69188;-63
2023/07/21 03:01:20;;;;;;;2.90;1.60;;;;;;;10.68;80.68;100269.67;105539;1258;69192;-64
2023/07/21 03:03:48;;;;;;;2.10;1.30;;;;;;;10.65;80.67;100277.48;105466;1257;74255;-63
2023/07/21 03:06:16;;;;;;;2.30;1.50;;;;;;;10.64;80.96;100278.58;105408;1257;83437;-63
2023/07/21 03:08:43;;;;;;;1.90;1.50;;;;;;;10.63;80.82;100278.62;105481;1257;73823;-63
2023/07/21 03:11:13;;;;;;;2.00;1.50;;;;;;;10.62;81.09;100279.53;105540;1257;69196;-63
2023/07/21 03:14:01;;;;;;;2.00;1.80;;;;;;;10.63;81.09;100278.81;105407;1257;69180;-63
2023/07/21 03:16:29;;;;;;;3.30;1.50;;;;;;;10.63;81.33;100281.25;105555;1256;74990;-63
2023/07/21 03:18:57;;;;;;;2.20;1.70;;;;;;;10.63;81.33;100282.30;105521;1257;83358;-63
2023/07/21 03:21:26;;;;;;;1.80;1.60;;;;;;;10.62;81.53;100284.23;105550;1257;72896;-63
2023/07/21 03:23:53;;;;;;;2.50;1.70;;;;;;;10.64;81.79;100277.20;105607;1252;69207;-63
2023/07/21 03:26:25;;;;;;;2.10;1.50;;;;;;;10.64;81.67;100274.22;105506;1257;69202;-63
2023/07/21 03:28:55;;;;;;;1.70;1.50;;;;;;;10.62;81.56;100275.69;105494;1256;74841;-63
2023/07/21 03:31:24;;;;;;;2.80;1.90;;;;;;;10.63;81.83;100274.23;105550;1257;83492;-63
2023/07/21 03:33:58;;;;;;;3.90;1.90;;;;;;;10.66;81.84;100271.17;105497;1257;72682;-63
2023/07/21 03:36:27;;;;;;;2.00;1.60;;;;;;;10.66;81.86;100272.58;105532;1257;69122;-63
2023/07/21 03:38:54;;;;;;;3.80;1.90;;;;;;;10.65;82.11;100275.41;105439;1258;69189;-64
2023/07/21 03:41:22;;;;;;;1.40;1.30;;;;;;;10.67;82.37;100276.38;105572;1254;74872;-64
2023/07/21 03:43:49;;;;;;;3.60;1.90;;;;;;;10.68;82.23;100271.96;105534;1257;82453;-63
2023/07/21 03:46:17;;;;;;;3.30;1.80;;;;;;;10.69;82.40;100272.08;105554;1257;73702;-63
2023/07/21 03:49:13;;;;;;;2.10;1.90;;;;;;;10.70;82.57;100269.79;105347;1256;69135;-63
2023/07/21 03:51:43;;;;;;;3.00;2.20;;;;;;;10.71;82.57;100267.64;105508;1254;69197;-63
2023/07/21 03:54:13;;;;;;;2.40;1.90;;;;;;;10.74;82.77;100266.13;105546;1255;73858;-64
2023/07/21 03:56:40;;;;;;;2.20;1.90;;;;;;;10.79;83.00;100271.37;105435;1258;82546;-63
2023/07/21 03:59:08;;;;;;;1.80;1.50;;;;;;;10.81;83.09;100270.36;105513;1256;72694;-63
2023/07/21 04:01:35;;;;;;;2.50;1.90;;;;;;;10.84;83.15;100269.74;105418;1254;69169;-63
2023/07/21 04:04:02;;;;;;;2.90;2.10;;;;;;;10.88;83.45;100273.78;105543;1257;69182;-63
2023/07/21 04:06:30;;;;;;;4.00;1.80;;;;;;;10.90;83.47;100271.77;105523;1254;74765;-63
2023/07/21 04:08:57;;;;;;;4.00;1.90;;;;;;;10.93;83.60;100273.20;105524;1256;83487;-63
2023/07/21 04:11:24;;;;;;;2.30;1.90;;;;;;;10.99;83.86;100272.65;105465;1254;73544;-63
2023/07/21 04:13:53;;;;;;;2.30;1.70;;;;;;;11.04;84.11;100267.52;105573;1257;69140;-63
2023/07/21 04:16:20;;;;;;;3.10;2.10;;;;;;;11.10;84.14;100266.42;105515;1258;69199;-64
2023/07/21 04:18:48;;;;;;;1.70;1.60;;;;;;;11.17;84.39;100268.06;105411;1254;73539;-64
2023/07/21 04:21:14;;;;;;;2.70;2.30;;;;;;;11.25;84.63;100263.73;105462;1257;83363;-63
2023/07/21 04:23:42;;;;;;;2.40;2.20;;;;;;;11.32;84.75;100264.81;105466;1254;73555;-63
2023/07/21 04:26:14;;;;;;;3.10;2.10;;;;;;;11.39;84.83;100263.28;105460;1259;69205;-63
2023/07/21 04:28:42;;;;;;;3.20;2.30;;;;;;;11.47;85.09;100261.86;105517;1255;69164;-64
2023/07/21 04:31:09;;;;;;;2.70;2.30;;;;;;;11.55;85.11;100263.64;105487;1254;75123;-63
2023/07/21 04:33:48;;;;;;;2.60;2.20;;;;;;;11.64;85.15;100262.39;105449;1254;82455;-63
2023/07/21 04:36:15;;;;;;;3.10;2.20;;;;;;;11.71;85.11;100262.27;105418;1261;72753;-64
2023/07/21 04:38:43;;;;;;;3.30;2.10;;;;;;;11.77;85.34;100258.13;105497;1257;69162;-63
2023/07/21 04:41:14;;;;;;;2.90;2.10;;;;;;;11.86;85.33;100261.09;105514;1255;69186;-63
2023/07/21 04:43:43;;;;;;;2.80;2.50;;;;;;;11.93;85.23;100256.58;105554;1254;73704;-63
2023/07/21 04:46:12;;;;;;;3.70;2.30;;;;;;;12.01;85.47;100255.34;105455;1265;83325;-63
2023/07/21 04:48:40;;;;;;;3.20;2.10;;;;;;;12.10;85.66;100254.23;105527;1254;72707;-64
2023/07/21 04:51:11;;;;;;;2.50;2.10;;;;;;;12.22;85.97;100253.68;105467;1261;69125;-64
2023/07/21 04:53:38;;;;;;;2.30;2.10;;;;;;;12.33;85.80;100254.41;105508;1254;69113;-63
2023/07/21 04:56:06;;;;;;;3.60;2.20;;;;;;;12.44;85.82;100250.54;105428;1254;75319;-64
2023/07/21 04:58:39;;;;;;;3.00;1.90;;;;;;;12.58;85.98;100251.27;105497;1254;81458;-63
2023/07/21 05:01:06;;;;;;;2.50;2.00;;;;;;;12.70;85.69;100249.52;105709;1253;73815;-64
2023/07/21 05:03:33;;;;;;;2.30;2.00;;;;;;;12.83;85.84;100247.81;105325;1260;69186;-64
2023/07/21 05:06:01;;;;;;;2.60;2.10;;;;;;;12.98;85.81;100255.50;105537;1254;69163;-64
2023/07/21 05:08:28;;;;;;;1.90;1.70;;;;;;;13.09;85.70;100257.39;105502;1255;74906;-63
2023/07/21 05:10:57;;;;;;;3.70;2.20;;;;;;;13.23;85.66;100250.20;105363;1259;82439;-64
2023/07/21 05:13:25;;;;;;;3.30;2.30;;;;;;;13.36;85.49;100255.02;105737;1257;73556;-64
2023/07/21 05:16:03;;;;;;;3.40;1.60;;;;;;;13.50;85.32;100255.04;105418;1253;69063;-65
2023/07/21 05:18:39;;;;;;;2.10;1.80;;;;;;;13.63;85.33;100254.70;105549;1257;69176;-65
2023/07/21 05:21:25;;;;;;;2.90;1.70;;;;;;;13.78;85.18;100253.40;105457;1254;74906;-67
2023/07/21 05:24:12;;;;;;;3.00;2.10;;;;;;;13.91;85.09;100251.83;105394;1257;83499;-67
2023/07/21 05:26:40;;;;;;;4.10;1.90;;;;;;;14.02;84.94;100250.34;105613;1254;72531;-61
2023/07/21 05:29:21;;;;;;;3.30;2.20;;;;;;;14.13;84.63;100251.14;105336;1259;69264;-62
2023/07/21 05:31:49;;;;;;;2.60;1.80;;;;;;;14.21;84.10;100252.83;105536;1254;69280;-62
2023/07/21 05:34:21;;;;;;;4.10;1.80;;;;;;;14.31;84.37;100252.83;105539;1254;74913;-62
2023/07/21 05:36:50;;;;;;;4.60;2.40;;;;;;;14.40;84.57;100251.46;105656;1257;83467;-62
2023/07/21 05:39:17;;;;;;;3.10;1.80;;;;;;;14.50;84.77;100256.17;105321;1255;73984;-62
2023/07/21 05:41:45;;;;;;;2.20;1.90;;;;;;;14.58;84.64;100255.24;105523;1257;69154;-62
2023/07/21 05:44:12;;;;;;;2.40;1.90;;;;;;;14.66;84.52;100252.49;105496;1257;69077;-62
2023/07/21 05:46:40;;;;;;;2.60;1.60;;;;;;;14.77;84.27;100256.82;105535;1254;73774;-63
2023/07/21 05:49:09;;;;;;;1.80;1.40;;;;;;;14.87;83.80;100261.34;105561;1254;81455;-63
2023/07/21 05:51:37;;;;;;;2.70;1.20;;;;;;;14.95;82.70;100261.05;105588;1254;72518;-63
2023/07/21 05:54:22;;;;;;;2.20;1.60;;;;;;;15.07;82.54;100259.69;105518;1254;69151;-63
2023/07/21 05:56:49;;;;;;;5.50;1.50;;;;;;;15.19;82.45;100260.92;105259;1259;69515;-63
2023/07/21 05:59:25;;;;;;;1.70;1.30;;;;;;;15.29;81.83;100259.43;105345;1254;74788;-63
2023/07/21 06:01:53;;;;;;;2.30;1.40;;;;;;;15.40;81.44;100261.59;105253;1260;83412;-58
2023/07/21 06:04:21;;;;;;;1.80;1.30;;;;;;;15.52;81.02;100261.58;105569;1254;72571;-62
2023/07/21 06:07:02;;;;;;;1.10;1.00;;;;;;;15.65;80.40;100262.09;105177;1254;69132;-61
2023/07/21 06:09:48;;;;;;;1.70;1.00;;;;;;;15.78;79.81;100266.91;105395;1257;69132;-61
2023/07/21 06:12:29;;;;;;;2.70;0.80;;;;;;;15.90;79.21;100261.45;105459;1254;74865;-61
2023/07/21 06:15:20;;;;;;;2.80;1.60;;;;;;;16.02;78.53;100260.69;105235;1257;83459;-61
2023/07/21 06:17:55;;;;;;;2.00;1.10;;;;;;;16.16;78.30;100261.80;105527;1253;73641;-61
2023/07/21 06:20:24;;;;;;;2.90;1.20;;;;;;;16.27;77.78;100261.95;105612;1257;69017;-63
2023/07/21 06:22:52;;;;;;;1.50;0.80;;;;;;;16.41;77.82;100259.33;105697;1253;69708;-64
2023/07/21 06:25:19;;;;;;;1.50;0.70;;;;;;;16.54;76.57;100261.64;105774;1254;73901;-63
2023/07/21 06:27:50;;;;;;;4.00;1.50;;;;;;;16.68;76.07;100261.48;105543;1257;83612;-67
2023/07/21 06:30:19;;;;;;;3.40;1.00;;;;;;;16.80;75.63;100258.61;105417;1257;72589;-66
2023/07/21 06:32:51;;;;;;;1.20;0.70;;;;;;;16.90;75.32;100255.98;105476;1253;69278;-66
2023/07/21 06:35:40;;;;;;;1.00;0.70;;;;;;;17.04;74.48;100256.89;105461;1257;69192;-64
2023/07/21 06:38:27;;;;;;;2.10;0.90;;;;;;;17.14;73.96;100254.97;105481;1254;74935;-64
2023/07/21 06:41:04;;;;;;;1.80;0.70;;;;;;;17.24;73.74;100251.30;105468;1257;83335;-64
2023/07/21 06:43:54;;;;;;;2.40;0.50;;;;;;;17.34;72.81;100250.93;105422;1256;72395;-64
2023/07/21 06:46:33;;;;;;;2.20;0.60;;;;;;;17.44;72.52;100247.84;105468;1252;69214;-64
2023/07/21 06:49:20;;;;;;;1.10;0.60;;;;;;;17.56;72.00;100248.73;105113;1258;69215;-64
2023/07/21 06:52:00;;;;;;;1.40;0.60;;;;;;;17.65;71.46;100242.84;105494;1254;73663;-64
2023/07/21 06:54:30;;;;;;;2.10;0.80;;;;;;;17.76;71.36;100238.88;105508;1256;82084;-64
2023/07/21 06:57:00;;;;;;;2.00;0.70;;;;;;;17.89;70.76;100236.63;105487;1257;73818;-64
2023/07/21 06:59:27;;;;;;;3.80;0.70;;;;;;;18.01;70.43;100236.81;105496;1257;69192;-64
2023/07/21 07:01:55;;;;;;;0.70;0.60;;;;;;;18.15;69.93;100236.02;105464;1257;69218;-64
2023/07/21 07:04:22;;;;;;;1.40;0.80;;;;;;;18.28;69.47;100234.04;105410;1253;74825;-64
2023/07/21 07:06:49;;;;;;;1.20;0.70;;;;;;;18.40;68.73;100231.95;105452;1257;83595;-64
2023/07/21 07:09:16;;;;;;;1.20;0.80;;;;;;;18.50;68.08;100229.08;105486;1254;73683;-64
2023/07/21 07:11:43;;;;;;;1.70;0.70;;;;;;;18.62;68.02;100226.62;105534;1253;69187;-64
2023/07/21 07:14:14;;;;;;;1.30;0.80;;;;;;;18.78;67.48;100227.19;105429;1253;69514;-64
2023/07/21 07:16:41;;;;;;;1.10;0.60;;;;;;;18.94;66.75;100224.30;105361;1253;73623;-64
2023/07/21 07:19:08;;;;;;;2.60;0.60;;;;;;;19.08;65.86;100222.85;105483;1257;83550;-66
2023/07/21 07:21:35;;;;;;;1.30;0.80;;;;;;;19.21;65.55;100221.01;105512;1252;73773;-64
2023/07/21 07:24:03;;;;;;;0.80;0.70;;;;;;;19.37;65.36;100224.04;105530;1252;69154;-64
2023/07/21 07:26:30;;;;;;;4.30;0.80;;;;;;;19.45;64.48;100220.77;105498;1256;69190;-64
2023/07/21 07:28:57;;;;;;;2.10;0.70;;;;;;;19.55;63.71;100224.05;105489;1255;74876;-64
2023/07/21 07:31:24;;;;;;;1.60;0.70;;;;;;;19.61;63.26;100218.97;105494;1256;82510;-64
2023/07/21 07:33:53;;;;;;;1.10;0.60;;;;;;;19.73;63.37;100220.38;105565;1255;73673;-64
2023/07/21 07:36:20;;;;;;;1.60;0.80;;;;;;;19.87;63.16;100215.61;105544;1253;69077;-64
2023/07/21 07:38:47;;;;;;;1.70;0.80;;;;;;;20.01;63.07;100215.73;105505;1252;69767;-64
2023/07/21 07:41:14;;;;;;;2.00;0.60;;;;;;;20.16;62.64;100214.54;105546;1254;75100;-64
2023/07/21 07:43:41;;;;;;;1.80;0.70;;;;;;;20.31;62.06;100216.14;105462;1256;83466;-64
2023/07/21 07:46:09;;;;;;;2.30;0.70;;;;;;;20.44;61.36;100214.22;105407;1253;163077;-64
2023/07/21 07:48:36;;;;;;;1.80;0.90;;;;;;;20.53;60.93;100212.28;105463;1256;69119;-64
2023/07/21 07:51:07;;;;;;;3.00;1.00;;;;;;;20.64;60.60;100209.21;105497;1257;69182;-64
2023/07/21 07:53:35;;;;;;;1.50;0.90;;;;;;;20.75;59.91;100211.52;105497;1253;74843;-64
2023/07/21 07:56:03;;;;;;;3.50;0.80;;;;;;;20.78;59.48;100209.50;105583;1256;83654;-64
2023/07/21 07:58:31;;;;;;;2.00;0.80;;;;;;;20.77;58.74;100212.44;105451;1253;72898;-65
2023/07/21 08:00:59;;;;;;;1.00;0.70;;;;;;;20.74;57.74;100209.69;105550;1253;69215;-64
2023/07/21 08:03:29;;;;;;;2.20;0.70;;;;;;;20.67;57.22;100204.34;105477;1257;70041;-49
2023/07/21 08:05:59;;;;;;;2.90;0.70;;;;;;;20.67;57.42;100205.29;105550;1253;75151;-48
2023/07/21 08:08:26;;;;;;;;;;;;;;;20.72;57.67;100204.83;105540;1257;83128;-48
2023/07/21 08:10:53;;;;;;;2.60;0.90;;;;;;;20.79;57.40;100203.95;105506;1256;71968;-47
2023/07/21 08:13:21;;;;;;;2.40;0.90;;;;;;;20.82;56.87;100201.89;105582;1253;70003;-48
2023/07/21 08:15:48;;;;;;;1.70;0.80;;;;;;;20.85;56.55;100203.42;105559;1257;70089;-48
2023/07/21 08:18:15;;;;;;;1.30;0.80;;;;;;;20.84;56.04;100195.89;105480;1253;74906;-48
2023/07/21 08:20:43;;;;;;;2.70;0.70;;;;;;;20.89;56.29;100195.46;105461;1256;83351;-47
2023/07/21 08:23:10;;;;;;;1.30;0.90;;;;;;;21.03;56.20;100194.29;105466;1253;73681;-48
2023/07/21 08:25:57;;;;;;;1.60;1.00;;;;;;;21.19;56.39;100194.84;105467;1254;69989;-47
2023/07/21 08:28:24;;;;;;;1.40;0.70;;;;;;;21.31;55.83;100194.95;105517;1253;70333;-47
2023/07/21 08:30:51;;;;;;;0.60;0.60;;;;;;;21.37;55.35;100195.29;105463;1253;74818;-48
2023/07/21 08:33:27;;;;;;;1.00;0.70;;;;;;;21.48;55.35;100195.62;105462;1257;83271;-47
2023/07/21 08:35:54;;;;;;;1.70;0.60;;;;;;;21.59;54.81;100192.50;105554;1253;73660;-47
2023/07/21 08:38:21;;;;;;;1.30;0.80;;;;;;;21.70;54.70;100188.17;105508;1256;70125;-48
2023/07/21 08:40:50;;;;;;;1.20;0.60;;;;;;;21.85;54.73;100188.54;105478;1257;69942;-47
2023/07/21 08:43:17;;;;;;;1.90;0.90;;;;;;;22.05;54.89;100184.94;105551;1253;74804;-47
2023/07/21 08:45:47;;;;;;;0.80;0.60;;;;;;;22.23;54.46;100186.29;105523;1252;83531;-47
2023/07/21 08:48:17;;;;;;;1.30;0.80;;;;;;;22.35;54.09;100183.19;105541;1256;74019;-47
2023/07/21 08:50:48;;;;;;;2.00;0.50;;;;;;;22.49;53.56;100187.62;105452;1253;69978;-48
2023/07/21 08:53:14;;;;;;;2.30;0.60;;;;;;;22.58;52.61;100184.50;105494;1257;70115;-47
2023/07/21 08:55:42;;;;;;;2.30;0.80;;;;;;;22.60;51.54;100184.94;105554;1253;74569;-49
2023/07/21 08:58:10;;;;;;;1.30;0.70;;;;;;;22.57;50.93;100183.91;105486;1257;82361;-48
2023/07/21 09:00:38;;;;;;;1.10;0.50;;;;;;;22.55;50.69;100180.85;105529;1255;73491;-48
2023/07/21 09:03:05;;;;;;;1.40;0.70;;;;;;;22.66;50.51;100179.50;105451;1253;69993;-48
2023/07/21 09:05:32;;;;;;;1.20;0.90;;;;;;;22.78;50.37;100179.70;105559;1256;69989;-47
2023/07/21 09:07:59;;;;;;;1.90;0.60;;;;;;;22.95;50.43;100177.43;105486;1254;74688;-48
2023/07/21 09:10:32;;;;;;;1.10;0.60;;;;;;;23.07;49.13;100175.58;105463;1257;83293;-49
2023/07/21 09:12:59;;;;;;;0.80;0.50;;;;;;;23.07;47.85;100175.64;105525;1253;72652;-49
2023/07/21 09:15:27;;;;;;;1.00;0.70;;;;;;;23.04;47.38;100163.77;105539;1257;69970;-48
2023/07/21 09:17:54;;;;;;;1.00;0.50;;;;;;;23.17;47.14;100163.30;105485;1252;69927;-47
2023/07/21 09:20:21;;;;;;;1.00;0.50;;;;;;;23.41;46.77;100165.27;105469;1254;74868;-47
2023/07/21 09:22:48;;;;;;;1.80;0.60;;;;;;;23.67;46.73;100162.09;105463;1257;83634;-47
2023/07/21 09:25:22;;;;;;;2.80;0.60;;;;;;;23.90;46.05;100164.55;105516;1253;72657;-51
2023/07/21 09:27:57;;;;;;;1.90;0.60;;;;;;;23.99;45.01;100162.27;105500;1253;69912;-48
2023/07/21 09:30:24;;;;;;;1.20;0.70;;;;;;;24.07;44.57;100159.52;105507;1253;69963;-48
2023/07/21 09:32:54;;;;;;;2.00;0.70;;;;;;;24.19;44.15;100157.47;105536;1253;73872;-48
2023/07/21 09:35:21;;;;;;;0.70;0.50;;;;;;;24.23;43.70;100154.65;105496;1253;83492;-48
2023/07/21 09:37:50;;;;;;;1.30;0.50;;;;;;;24.33;43.59;100143.77;105528;1253;72666;-49
2023/07/21 09:40:26;;;;;;;3.20;0.60;;;;;;;24.45;43.77;100140.45;105498;1252;70532;-49
2023/07/21 09:42:54;;;;;;;1.70;0.70;;;;;;;24.55;43.49;100142.67;105519;1253;70019;-49
2023/07/21 09:45:21;;;;;;;2.00;0.90;;;;;;;24.60;43.32;100140.86;105471;1254;73855;-48
2023/07/21 09:47:49;;;;;;;0.80;0.60;;;;;;;24.60;43.08;100143.42;105486;1253;83243;-48
2023/07/21 09:50:16;;;;;;;1.30;0.70;;;;;;;24.67;43.13;100140.36;105424;1257;73879;-47
2023/07/21 09:52:46;;;;;;;1.30;0.60;;;;;;;24.72;42.93;100137.20;105483;1257;70482;-48
2023/07/21 09:55:16;;;;;;;1.00;0.40;;;;;;;24.85;42.66;100130.47;105479;1256;69961;-48
2023/07/21 09:57:45;;;;;;;1.90;0.60;;;;;;;24.98;42.72;100131.54;105483;1254;75050;-50
2023/07/21 10:00:14;;;;;;;;;;;;;;;25.12;42.58;100127.76;105502;1256;83280;-48
2023/07/21 10:02:43;;;;;;;1.30;0.80;;;;;;;25.21;42.01;100127.47;105468;1257;73671;-48
2023/07/21 10:05:10;;;;;;;4.20;0.80;;;;;;;25.23;42.10;100122.73;105517;1257;70501;-47
2023/07/21 10:07:40;;;;;;;0.70;0.60;;;;;;;25.36;42.25;100117.83;105480;1257;70072;-47
2023/07/21 10:10:08;;;;;;;;;;;;;;;25.50;42.36;100117.66;105574;1253;74958;-48
2023/07/21 10:12:49;;;;;;;3.80;0.50;;;;;;;25.65;42.15;100114.48;105561;1253;81821;-45
2023/07/21 10:15:30;;;;;;;0.90;0.60;;;;;;;25.72;41.72;100117.48;105664;1253;73873;-46
2023/07/21 10:18:13;;;;;;;0.60;0.50;;;;;;;25.77;40.96;100120.45;105572;1253;69909;-45
2023/07/21 10:20:52;;;;;;;0.70;0.50;;;;;;;25.87;40.42;100118.45;105529;1257;70000;-45
2023/07/21 10:23:38;;;;;;;1.10;0.70;;;;;;;25.98;40.23;100114.39;105718;1253;75292;-49
2023/07/21 10:26:07;;;;;;;0.70;0.60;;;;;;;26.04;40.59;100108.66;105543;1253;81998;-46
2023/07/21 10:28:42;;;;;;;0.50;0.40;;;;;;;26.09;40.50;100112.39;105587;1253;73327;-45
2023/07/21 10:31:25;;;;;;;2.30;0.60;;;;;;;26.15;40.13;100106.44;105826;1257;69930;-45
2023/07/21 10:34:03;;;;;;;1.00;0.60;;;;;;;26.27;39.79;100110.59;105571;1257;70007;-46
2023/07/21 10:36:58;;;;;;;0.40;0.40;;;;;;;26.46;39.14;100112.38;105538;1257;74797;-45
2023/07/21 10:39:31;;;;;;;2.90;0.60;;;;;;;26.80;38.87;100102.27;105488;1254;84059;-45
2023/07/21 10:42:03;;;;;;;0.60;0.40;;;;;;;27.18;38.44;100098.85;105629;1253;73282;-45
2023/07/21 10:44:33;;;;;;;1.30;0.50;;;;;;;27.53;38.74;100093.48;105599;1257;70003;-45
2023/07/21 10:47:00;;;;;;;0.90;0.40;;;;;;;27.88;38.33;100094.86;105656;1256;70003;-46
2023/07/21 10:49:27;;;;;;;0.90;0.50;;;;;;;28.16;37.76;100086.88;105617;1253;75051;-45
2023/07/21 10:51:54;;;;;;;2.00;0.60;;;;;;;28.20;37.37;100081.98;105695;1257;83822;-45
2023/07/21 10:54:21;;;;;;;0.80;0.60;;;;;;;28.25;37.22;100083.80;105670;1253;73482;-45
2023/07/21 10:56:50;;;;;;;3.20;0.70;;;;;;;28.18;36.55;100083.87;105617;1257;69997;-45
2023/07/21 10:59:18;;;;;;;2.10;0.50;;;;;;;28.05;36.28;100081.61;105724;1257;69890;-45
2023/07/21 11:01:51;;;;;;;2.80;0.70;;;;;;;27.91;36.42;100078.67;105565;1253;74598;-45
2023/07/21 11:04:20;;;;;;;1.10;0.60;;;;;;;27.88;36.32;100076.17;105569;1258;83675;-45
2023/07/21 11:06:49;;;;;;;;;;;;;;;27.80;36.52;100070.11;105567;1255;73749;-46
2023/07/21 11:09:17;;;;;;;1.00;0.60;;;;;;;27.76;36.15;100068.78;105494;1253;69824;-45
2023/07/21 11:11:45;;;;;;;1.00;0.60;;;;;;;27.72;36.54;100071.32;105681;1256;70000;-49
2023/07/21 11:14:19;;;;;;;1.20;0.50;;;;;;;27.86;36.21;100067.02;105411;1253;76365;-46
2023/07/21 11:16:57;;;;;;;0.60;0.50;;;;;;;28.00;35.89;100057.15;105510;1257;83473;-46
2023/07/21 11:19:26;;;;;;;1.40;0.70;;;;;;;28.20;36.02;100052.90;105478;1254;72534;-45
2023/07/21 11:21:53;;;;;;;0.60;0.40;;;;;;;28.29;35.20;100057.75;105554;1258;69944;-45
2023/07/21 11:24:26;;;;;;;1.30;0.40;;;;;;;28.21;34.85;100053.64;105408;1257;70010;-45
2023/07/21 11:26:54;;;;;;;;;;;;;;;28.31;34.88;100053.19;105710;1255;75080;-47
2023/07/21 11:29:24;;;;;;;0.60;0.60;;;;;;;28.41;34.92;100046.81;105664;1257;83678;-48
2023/07/21 11:31:51;;;;;;;0.40;0.40;;;;;;;28.56;34.72;100046.48;105697;1257;72010;-46